Time,TemperatureF,DewpointF,PressureIn,WindDirection,WindDirectionDegrees,WindSpeedMPH,WindSpeedGustMPH,Humidity,HourlyPrecipIn,Conditions,Clouds,dailyrainin,SoftwareType,DateUTC
2013-09-15 00:53:00,63.0,-99.9,-100.00,North,11,2.0,3.0,-999,-99.99,,,-99.99,,2013-09-15 07:53:00,
2013-09-15 01:02:00,63.0,-99.9,-100.00,North,11,2.0,3.0,-999,-99.99,,,-99.99,,2013-09-15 08:02:00,
2013-09-15 01:50:00,61.0,-99.9,-100.00,WSW,250,0.0,3.0,-999,-99.99,,,-99.99,,2013-09-15 08:50:00,
2013-09-15 03:30:00,58.0,-99.9,-100.00,SE,129,2.0,2.0,-999,-99.99,,,-99.99,,2013-09-15 10:30:00,
2013-09-15 04:12:00,58.0,-99.9,-100.00,SE,129,2.0,2.0,-999,-99.99,,,-99.99,,2013-09-15 11:12:00,
2013-09-15 04:22:00,58.0,-99.9,-100.00,SE,129,2.0,2.0,-999,-99.99,,,-99.99,,2013-09-15 11:22:00,
2013-09-15 07:12:00,55.0,-99.9,-100.00,SE,141,3.0,7.0,-999,-99.99,,,-99.99,,2013-09-15 14:12:00,
2013-09-15 12:22:00,92.0,-99.9,-100.00,ENE,61,12.0,18.0,-999,-99.99,,,-99.99,,2013-09-15 19:22:00,
2013-09-15 12:42:00,91.0,-99.9,-100.00,North,8,11.0,11.0,-999,-99.99,,,-99.99,,2013-09-15 19:42:00,
2013-09-15 12:52:00,91.0,-99.9,-100.00,North,8,11.0,11.0,-999,-99.99,,,-99.99,,2013-09-15 19:52:00,
2013-09-15 15:14:00,94.0,-99.9,-100.00,SSW,200,2.0,15.0,-999,-99.99,,,-99.99,,2013-09-15 22:14:00,
2013-09-15 15:23:00,94.0,-99.9,-100.00,SSW,200,2.0,15.0,-999,-99.99,,,-99.99,,2013-09-15 22:23:00,
2013-09-15 15:44:00,94.0,-99.9,-100.00,SE,131,15.0,20.0,-999,-99.99,,,-99.99,,2013-09-15 22:44:00,
2013-09-15 16:42:00,94.0,-99.9,-100.00,SSE,154,12.0,16.0,-999,-99.99,,,-99.99,,2013-09-15 23:42:00,
2013-09-15 19:22:00,78.0,-99.9,-100.00,SE,138,14.0,16.0,-999,-99.99,,,-99.99,,2013-09-16 02:22:00,
2013-09-15 19:32:00,78.0,-99.9,-100.00,SE,138,14.0,16.0,-999,-99.99,,,-99.99,,2013-09-16 02:32:00,
2013-09-15 19:42:00,78.0,-99.9,-100.00,SE,138,14.0,16.0,-999,-99.99,,,-99.99,,2013-09-16 02:42:00,
2013-09-15 22:13:00,69.0,-99.9,-100.00,ESE,114,3.0,5.0,-999,-99.99,,,-99.99,,2013-09-16 05:13:00,
2013-09-15 22:22:00,68.0,-99.9,-100.00,East,81,2.0,4.0,-999,-99.99,,,-99.99,,2013-09-16 05:22:00,
2013-09-15 22:34:00,68.0,-99.9,-100.00,East,81,2.0,4.0,-999,-99.99,,,-99.99,,2013-09-16 05:34:00,
2013-09-15 22:44:00,68.0,-99.9,-100.00,East,81,2.0,4.0,-999,-99.99,,,-99.99,,2013-09-16 05:44:00,
2013-09-15 23:12:00,65.0,-99.9,-100.00,ESE,117,7.0,9.0,-999,-99.99,,,-99.99,,2013-09-16 06:12:00,
2013-09-15 23:22:00,65.0,-99.9,-100.00,ESE,117,7.0,9.0,-999,-99.99,,,-99.99,,2013-09-16 06:22:00,